sensor_id;sensor_type;location;lat;lon;timestamp;temperature;humidity
14210;DHT22;7188;56.070;12.698;2022-08-03T00:00:38;16.40;99.90
14210;DHT22;7188;56.070;12.698;2022-08-03T00:03:04;16.50;99.90
14210;DHT22;7188;56.070;12.698;2022-08-03T00:05:30;16.50;99.90
14210;DHT22;7188;56.070;12.698;2022-08-03T00:08:01;16.50;99.90
14210;DHT22;7188;56.070;12.698;2022-08-03T00:10:26;16.50;99.90
14210;DHT22;7188;56.070;12.698;2022-08-03T00:12:52;16.60;99.90
14210;DHT22;7188;56.070;12.698;2022-08-03T00:15:19;16.60;99.90
14210;DHT22;7188;56.070;12.698;2022-08-03T00:17:45;16.60;99.90
14210;DHT22;7188;56.070;12.698;2022-08-03T00:20:11;16.70;99.90
14210;DHT22;7188;56.070;12.698;2022-08-03T00:22:36;16.70;99.90
14210;DHT22;7188;56.070;12.698;2022-08-03T00:25:02;16.70;99.90
14210;DHT22;7188;56.070;12.698;2022-08-03T00:27:28;16.70;99.90
14210;DHT22;7188;56.070;12.698;2022-08-03T00:29:54;16.70;99.90
14210;DHT22;7188;56.070;12.698;2022-08-03T00:32:20;16.70;99.90
14210;DHT22;7188;56.070;12.698;2022-08-03T00:34:45;16.70;99.90
14210;DHT22;7188;56.070;12.698;2022-08-03T00:37:11;16.70;99.90
14210;DHT22;7188;56.070;12.698;2022-08-03T00:39:36;16.70;99.90
14210;DHT22;7188;56.070;12.698;2022-08-03T00:42:03;16.70;99.90
14210;DHT22;7188;56.070;12.698;2022-08-03T00:44:29;16.70;99.90
14210;DHT22;7188;56.070;12.698;2022-08-03T00:46:55;16.70;99.90
14210;DHT22;7188;56.070;12.698;2022-08-03T00:49:21;16.80;99.90
14210;DHT22;7188;56.070;12.698;2022-08-03T00:51:47;16.80;99.90
14210;DHT22;7188;56.070;12.698;2022-08-03T00:54:14;16.80;99.90
14210;DHT22;7188;56.070;12.698;2022-08-03T00:56:40;16.90;99.90
14210;DHT22;7188;56.070;12.698;2022-08-03T00:59:09;16.90;99.90
14210;DHT22;7188;56.070;12.698;2022-08-03T01:01:34;16.90;99.90
14210;DHT22;7188;56.070;12.698;2022-08-03T01:04:00;16.90;99.90
14210;DHT22;7188;56.070;12.698;2022-08-03T01:06:45;17.00;99.90
14210;DHT22;7188;56.070;12.698;2022-08-03T01:09:26;17.00;99.90
14210;DHT22;7188;56.070;12.698;2022-08-03T01:12:08;17.00;99.90
14210;DHT22;7188;56.070;12.698;2022-08-03T01:14:45;17.00;99.90
14210;DHT22;7188;56.070;12.698;2022-08-03T01:31:09;17.10;99.90
14210;DHT22;7188;56.070;12.698;2022-08-03T01:33:41;17.10;99.90
14210;DHT22;7188;56.070;12.698;2022-08-03T01:36:14;17.10;99.90
14210;DHT22;7188;56.070;12.698;2022-08-03T01:38:42;17.20;99.90
14210;DHT22;7188;56.070;12.698;2022-08-03T01:41:16;17.10;99.90
14210;DHT22;7188;56.070;12.698;2022-08-03T01:43:43;17.20;99.90
14210;DHT22;7188;56.070;12.698;2022-08-03T01:46:13;17.20;99.90
14210;DHT22;7188;56.070;12.698;2022-08-03T01:48:41;17.10;99.90
14210;DHT22;7188;56.070;12.698;2022-08-03T01:51:08;17.20;99.90
14210;DHT22;7188;56.070;12.698;2022-08-03T01:53:36;17.10;99.90
14210;DHT22;7188;56.070;12.698;2022-08-03T01:56:05;17.10;99.90
14210;DHT22;7188;56.070;12.698;2022-08-03T01:58:34;17.20;99.90
14210;DHT22;7188;56.070;12.698;2022-08-03T02:01:02;17.20;99.90
14210;DHT22;7188;56.070;12.698;2022-08-03T02:03:31;17.20;99.90
14210;DHT22;7188;56.070;12.698;2022-08-03T02:05:59;17.20;99.90
14210;DHT22;7188;56.070;12.698;2022-08-03T02:08:26;17.20;99.90
14210;DHT22;7188;56.070;12.698;2022-08-03T02:10:55;17.20;99.90
14210;DHT22;7188;56.070;12.698;2022-08-03T02:13:23;17.20;99.90
14210;DHT22;7188;56.070;12.698;2022-08-03T02:15:51;17.20;99.90
14210;DHT22;7188;56.070;12.698;2022-08-03T02:18:17;17.20;99.90
14210;DHT22;7188;56.070;12.698;2022-08-03T02:20:44;17.20;99.90
14210;DHT22;7188;56.070;12.698;2022-08-03T02:23:11;17.20;99.90
14210;DHT22;7188;56.070;12.698;2022-08-03T02:25:42;17.20;99.90
14210;DHT22;7188;56.070;12.698;2022-08-03T02:28:17;17.20;99.90
14210;DHT22;7188;56.070;12.698;2022-08-03T02:30:46;17.20;99.90
14210;DHT22;7188;56.070;12.698;2022-08-03T02:33:21;17.20;99.90
14210;DHT22;7188;56.070;12.698;2022-08-03T02:35:50;17.20;99.90
14210;DHT22;7188;56.070;12.698;2022-08-03T02:38:19;17.20;99.90
14210;DHT22;7188;56.070;12.698;2022-08-03T02:40:46;17.30;99.90
14210;DHT22;7188;56.070;12.698;2022-08-03T02:43:17;17.30;99.90
14210;DHT22;7188;56.070;12.698;2022-08-03T02:45:47;17.30;99.90
14210;DHT22;7188;56.070;12.698;2022-08-03T02:48:23;17.30;99.90
14210;DHT22;7188;56.070;12.698;2022-08-03T02:50:54;17.30;99.90
14210;DHT22;7188;56.070;12.698;2022-08-03T02:53:22;17.30;99.90
14210;DHT22;7188;56.070;12.698;2022-08-03T02:55:49;17.30;99.90
14210;DHT22;7188;56.070;12.698;2022-08-03T02:58:18;17.30;99.90
14210;DHT22;7188;56.070;12.698;2022-08-03T03:00:46;17.30;99.90
14210;DHT22;7188;56.070;12.698;2022-08-03T03:03:12;17.30;99.90
14210;DHT22;7188;56.070;12.698;2022-08-03T03:05:40;17.30;99.90
14210;DHT22;7188;56.070;12.698;2022-08-03T03:08:07;17.30;99.90
14210;DHT22;7188;56.070;12.698;2022-08-03T03:10:33;17.30;99.90
14210;DHT22;7188;56.070;12.698;2022-08-03T03:13:00;17.30;99.90
14210;DHT22;7188;56.070;12.698;2022-08-03T03:15:27;17.30;99.90
14210;DHT22;7188;56.070;12.698;2022-08-03T03:17:54;17.30;99.90
14210;DHT22;7188;56.070;12.698;2022-08-03T03:20:21;17.40;99.90
14210;DHT22;7188;56.070;12.698;2022-08-03T03:22:49;17.40;99.90
14210;DHT22;7188;56.070;12.698;2022-08-03T03:25:16;17.40;99.90
14210;DHT22;7188;56.070;12.698;2022-08-03T03:27:42;17.40;99.90
14210;DHT22;7188;56.070;12.698;2022-08-03T03:30:08;17.40;99.90
14210;DHT22;7188;56.070;12.698;2022-08-03T03:32:34;17.40;99.90
14210;DHT22;7188;56.070;12.698;2022-08-03T03:35:01;17.40;99.90
14210;DHT22;7188;56.070;12.698;2022-08-03T03:37:29;17.40;99.90
14210;DHT22;7188;56.070;12.698;2022-08-03T03:39:55;17.40;99.90
14210;DHT22;7188;56.070;12.698;2022-08-03T03:42:21;17.40;99.90
14210;DHT22;7188;56.070;12.698;2022-08-03T03:44:46;17.40;99.90
14210;DHT22;7188;56.070;12.698;2022-08-03T03:47:12;17.50;99.90
14210;DHT22;7188;56.070;12.698;2022-08-03T03:49:39;17.50;99.90
14210;DHT22;7188;56.070;12.698;2022-08-03T03:52:05;17.50;99.90
14210;DHT22;7188;56.070;12.698;2022-08-03T03:54:41;17.50;99.90
14210;DHT22;7188;56.070;12.698;2022-08-03T03:57:07;17.50;99.90
14210;DHT22;7188;56.070;12.698;2022-08-03T03:59:40;17.50;99.90
14210;DHT22;7188;56.070;12.698;2022-08-03T04:02:06;17.60;99.90
14210;DHT22;7188;56.070;12.698;2022-08-03T04:04:34;17.60;99.90
14210;DHT22;7188;56.070;12.698;2022-08-03T04:07:18;17.60;99.90
14210;DHT22;7188;56.070;12.698;2022-08-03T04:10:07;17.60;99.90
14210;DHT22;7188;56.070;12.698;2022-08-03T04:12:53;17.70;99.90
14210;DHT22;7188;56.070;12.698;2022-08-03T04:15:23;17.70;99.90
14210;DHT22;7188;56.070;12.698;2022-08-03T04:17:52;17.80;99.90
14210;DHT22;7188;56.070;12.698;2022-08-03T04:20:20;17.80;99.90
14210;DHT22;7188;56.070;12.698;2022-08-03T04:22:48;17.90;99.90
14210;DHT22;7188;56.070;12.698;2022-08-03T04:25:17;18.00;99.90
14210;DHT22;7188;56.070;12.698;2022-08-03T04:27:45;18.00;99.90
14210;DHT22;7188;56.070;12.698;2022-08-03T04:30:13;18.00;99.90
14210;DHT22;7188;56.070;12.698;2022-08-03T04:32:40;18.00;99.90
14210;DHT22;7188;56.070;12.698;2022-08-03T04:35:08;18.00;99.90
14210;DHT22;7188;56.070;12.698;2022-08-03T04:37:38;18.10;99.90
14210;DHT22;7188;56.070;12.698;2022-08-03T04:40:13;18.10;99.90
14210;DHT22;7188;56.070;12.698;2022-08-03T04:42:41;18.10;99.90
14210;DHT22;7188;56.070;12.698;2022-08-03T04:45:11;18.20;99.90
14210;DHT22;7188;56.070;12.698;2022-08-03T04:47:37;18.10;99.90
14210;DHT22;7188;56.070;12.698;2022-08-03T04:50:04;18.20;99.90
14210;DHT22;7188;56.070;12.698;2022-08-03T04:52:31;18.20;99.90
14210;DHT22;7188;56.070;12.698;2022-08-03T04:54:57;18.20;99.90
14210;DHT22;7188;56.070;12.698;2022-08-03T04:57:23;18.20;99.90
14210;DHT22;7188;56.070;12.698;2022-08-03T04:59:50;18.20;99.90
14210;DHT22;7188;56.070;12.698;2022-08-03T05:02:19;18.30;99.90
14210;DHT22;7188;56.070;12.698;2022-08-03T05:04:45;18.40;99.90
14210;DHT22;7188;56.070;12.698;2022-08-03T05:07:15;18.40;99.90
14210;DHT22;7188;56.070;12.698;2022-08-03T05:09:42;18.50;99.90
14210;DHT22;7188;56.070;12.698;2022-08-03T05:12:09;18.50;99.90
14210;DHT22;7188;56.070;12.698;2022-08-03T05:14:36;18.60;99.90
14210;DHT22;7188;56.070;12.698;2022-08-03T05:17:07;18.60;99.90
14210;DHT22;7188;56.070;12.698;2022-08-03T05:19:48;18.70;99.90
14210;DHT22;7188;56.070;12.698;2022-08-03T05:22:14;18.70;99.90
14210;DHT22;7188;56.070;12.698;2022-08-03T05:24:39;18.80;99.90
14210;DHT22;7188;56.070;12.698;2022-08-03T05:27:05;18.90;99.90
14210;DHT22;7188;56.070;12.698;2022-08-03T05:29:31;18.90;99.90
14210;DHT22;7188;56.070;12.698;2022-08-03T05:31:56;19.00;99.90
14210;DHT22;7188;56.070;12.698;2022-08-03T05:34:22;19.10;85.90
14210;DHT22;7188;56.070;12.698;2022-08-03T05:36:47;19.10;36.30
14210;DHT22;7188;56.070;12.698;2022-08-03T05:39:13;19.20;30.40
14210;DHT22;7188;56.070;12.698;2022-08-03T05:41:39;19.30;1.00
14210;DHT22;7188;56.070;12.698;2022-08-03T05:44:04;19.30;1.00
14210;DHT22;7188;56.070;12.698;2022-08-03T05:46:30;19.40;1.00
14210;DHT22;7188;56.070;12.698;2022-08-03T05:48:56;19.50;1.00
14210;DHT22;7188;56.070;12.698;2022-08-03T05:51:22;19.50;99.90
14210;DHT22;7188;56.070;12.698;2022-08-03T05:53:47;19.60;99.90
14210;DHT22;7188;56.070;12.698;2022-08-03T05:56:13;19.70;99.90
14210;DHT22;7188;56.070;12.698;2022-08-03T05:58:39;19.80;41.30
14210;DHT22;7188;56.070;12.698;2022-08-03T06:01:05;19.90;1.00
14210;DHT22;7188;56.070;12.698;2022-08-03T06:03:30;19.90;1.00
14210;DHT22;7188;56.070;12.698;2022-08-03T06:05:57;20.00;1.00
14210;DHT22;7188;56.070;12.698;2022-08-03T06:08:23;20.00;1.00
14210;DHT22;7188;56.070;12.698;2022-08-03T06:10:50;20.00;1.00
14210;DHT22;7188;56.070;12.698;2022-08-03T06:13:15;20.10;1.00
14210;DHT22;7188;56.070;12.698;2022-08-03T06:15:41;20.10;99.90
14210;DHT22;7188;56.070;12.698;2022-08-03T06:18:07;20.20;87.10
14210;DHT22;7188;56.070;12.698;2022-08-03T06:20:33;20.30;1.00
14210;DHT22;7188;56.070;12.698;2022-08-03T06:22:58;20.40;99.90
14210;DHT22;7188;56.070;12.698;2022-08-03T06:25:25;20.50;1.00
14210;DHT22;7188;56.070;12.698;2022-08-03T06:27:51;20.50;1.00
14210;DHT22;7188;56.070;12.698;2022-08-03T06:30:16;20.60;1.00
14210;DHT22;7188;56.070;12.698;2022-08-03T06:32:43;20.70;1.00
14210;DHT22;7188;56.070;12.698;2022-08-03T06:35:09;20.70;99.90
14210;DHT22;7188;56.070;12.698;2022-08-03T06:38:02;20.70;99.90
14210;DHT22;7188;56.070;12.698;2022-08-03T06:40:28;20.70;99.90
14210;DHT22;7188;56.070;12.698;2022-08-03T06:43:00;20.70;99.90
14210;DHT22;7188;56.070;12.698;2022-08-03T06:45:34;20.70;1.00
14210;DHT22;7188;56.070;12.698;2022-08-03T06:48:04;20.80;1.00
14210;DHT22;7188;56.070;12.698;2022-08-03T06:50:32;20.90;1.00
14210;DHT22;7188;56.070;12.698;2022-08-03T06:52:58;20.90;99.90
14210;DHT22;7188;56.070;12.698;2022-08-03T06:55:24;20.90;99.90
14210;DHT22;7188;56.070;12.698;2022-08-03T06:57:51;21.00;1.00
14210;DHT22;7188;56.070;12.698;2022-08-03T07:00:17;21.00;99.90
14210;DHT22;7188;56.070;12.698;2022-08-03T07:02:43;21.10;1.00
14210;DHT22;7188;56.070;12.698;2022-08-03T07:05:09;21.10;99.90
14210;DHT22;7188;56.070;12.698;2022-08-03T07:07:36;21.10;99.90
14210;DHT22;7188;56.070;12.698;2022-08-03T07:10:02;21.10;99.90
14210;DHT22;7188;56.070;12.698;2022-08-03T07:12:29;21.10;99.90
14210;DHT22;7188;56.070;12.698;2022-08-03T07:14:56;21.10;1.00
14210;DHT22;7188;56.070;12.698;2022-08-03T07:17:22;21.10;99.90
14210;DHT22;7188;56.070;12.698;2022-08-03T07:19:48;21.20;1.00
14210;DHT22;7188;56.070;12.698;2022-08-03T07:22:14;21.30;99.90
14210;DHT22;7188;56.070;12.698;2022-08-03T07:24:39;21.30;1.60
14210;DHT22;7188;56.070;12.698;2022-08-03T07:27:07;21.30;99.90
14210;DHT22;7188;56.070;12.698;2022-08-03T07:29:33;21.30;99.90
14210;DHT22;7188;56.070;12.698;2022-08-03T07:31:59;21.30;99.90
14210;DHT22;7188;56.070;12.698;2022-08-03T07:34:24;21.30;1.00
14210;DHT22;7188;56.070;12.698;2022-08-03T07:36:50;21.40;66.00
14210;DHT22;7188;56.070;12.698;2022-08-03T07:39:16;21.40;35.00
14210;DHT22;7188;56.070;12.698;2022-08-03T07:41:41;21.40;31.20
14210;DHT22;7188;56.070;12.698;2022-08-03T07:44:07;21.40;99.90
14210;DHT22;7188;56.070;12.698;2022-08-03T07:46:33;21.50;1.00
14210;DHT22;7188;56.070;12.698;2022-08-03T07:48:58;21.60;1.00
14210;DHT22;7188;56.070;12.698;2022-08-03T07:51:24;21.70;1.00
14210;DHT22;7188;56.070;12.698;2022-08-03T07:53:50;21.80;1.00
14210;DHT22;7188;56.070;12.698;2022-08-03T07:56:15;21.70;1.00
14210;DHT22;7188;56.070;12.698;2022-08-03T07:58:41;21.80;99.90
14210;DHT22;7188;56.070;12.698;2022-08-03T08:01:07;21.90;1.00
14210;DHT22;7188;56.070;12.698;2022-08-03T08:03:33;22.00;1.00
14210;DHT22;7188;56.070;12.698;2022-08-03T08:06:00;22.10;1.00
14210;DHT22;7188;56.070;12.698;2022-08-03T08:08:26;22.40;1.00
14210;DHT22;7188;56.070;12.698;2022-08-03T08:10:51;22.70;1.00
14210;DHT22;7188;56.070;12.698;2022-08-03T08:13:17;23.00;1.00
14210;DHT22;7188;56.070;12.698;2022-08-03T08:15:43;23.10;1.00
14210;DHT22;7188;56.070;12.698;2022-08-03T08:18:09;23.00;99.90
14210;DHT22;7188;56.070;12.698;2022-08-03T08:20:35;22.90;1.00
14210;DHT22;7188;56.070;12.698;2022-08-03T08:23:06;23.00;53.40
14210;DHT22;7188;56.070;12.698;2022-08-03T08:25:32;23.20;99.90
14210;DHT22;7188;56.070;12.698;2022-08-03T08:27:59;23.30;1.00
14210;DHT22;7188;56.070;12.698;2022-08-03T08:30:27;23.30;99.90
14210;DHT22;7188;56.070;12.698;2022-08-03T08:32:52;23.20;1.00
14210;DHT22;7188;56.070;12.698;2022-08-03T08:35:18;23.20;1.00
14210;DHT22;7188;56.070;12.698;2022-08-03T08:37:45;23.10;1.00
14210;DHT22;7188;56.070;12.698;2022-08-03T08:40:11;23.10;1.00
14210;DHT22;7188;56.070;12.698;2022-08-03T08:42:39;23.10;99.90
14210;DHT22;7188;56.070;12.698;2022-08-03T08:45:05;23.20;99.90
14210;DHT22;7188;56.070;12.698;2022-08-03T08:47:36;23.40;99.90
14210;DHT22;7188;56.070;12.698;2022-08-03T08:50:03;23.60;99.90
14210;DHT22;7188;56.070;12.698;2022-08-03T08:52:30;23.70;1.00
14210;DHT22;7188;56.070;12.698;2022-08-03T08:55:04;23.70;1.00
14210;DHT22;7188;56.070;12.698;2022-08-03T08:57:35;23.80;99.90
14210;DHT22;7188;56.070;12.698;2022-08-03T09:00:04;23.90;1.00
14210;DHT22;7188;56.070;12.698;2022-08-03T09:02:31;24.10;1.00
14210;DHT22;7188;56.070;12.698;2022-08-03T09:04:57;24.10;1.00
14210;DHT22;7188;56.070;12.698;2022-08-03T09:07:24;24.10;1.00
14210;DHT22;7188;56.070;12.698;2022-08-03T09:09:49;24.30;99.90
14210;DHT22;7188;56.070;12.698;2022-08-03T09:12:15;24.40;1.00
14210;DHT22;7188;56.070;12.698;2022-08-03T09:14:41;24.60;99.90
14210;DHT22;7188;56.070;12.698;2022-08-03T09:17:06;24.80;99.90
14210;DHT22;7188;56.070;12.698;2022-08-03T09:19:34;24.90;99.90
14210;DHT22;7188;56.070;12.698;2022-08-03T09:22:15;25.20;1.00
14210;DHT22;7188;56.070;12.698;2022-08-03T09:25:13;25.40;78.40
14210;DHT22;7188;56.070;12.698;2022-08-03T09:27:43;25.50;1.00
14210;DHT22;7188;56.070;12.698;2022-08-03T09:30:17;25.60;99.90
14210;DHT22;7188;56.070;12.698;2022-08-03T09:32:45;25.70;99.90
14210;DHT22;7188;56.070;12.698;2022-08-03T09:35:12;25.90;1.00
14210;DHT22;7188;56.070;12.698;2022-08-03T09:37:39;26.10;99.90
14210;DHT22;7188;56.070;12.698;2022-08-03T09:40:34;26.10;91.90
14210;DHT22;7188;56.070;12.698;2022-08-03T09:43:00;26.40;1.00
14210;DHT22;7188;56.070;12.698;2022-08-03T09:45:27;26.50;99.90
14210;DHT22;7188;56.070;12.698;2022-08-03T09:47:53;26.60;99.90
14210;DHT22;7188;56.070;12.698;2022-08-03T09:50:18;26.60;1.00
14210;DHT22;7188;56.070;12.698;2022-08-03T09:52:44;26.70;99.90
14210;DHT22;7188;56.070;12.698;2022-08-03T09:55:13;26.70;99.90
14210;DHT22;7188;56.070;12.698;2022-08-03T09:57:39;26.90;99.90
14210;DHT22;7188;56.070;12.698;2022-08-03T10:00:08;27.20;99.90
14210;DHT22;7188;56.070;12.698;2022-08-03T10:02:39;27.40;99.90
14210;DHT22;7188;56.070;12.698;2022-08-03T10:05:06;27.60;99.90
14210;DHT22;7188;56.070;12.698;2022-08-03T10:07:43;27.50;99.90
14210;DHT22;7188;56.070;12.698;2022-08-03T10:10:09;27.10;99.90
14210;DHT22;7188;56.070;12.698;2022-08-03T10:12:36;27.10;99.90
14210;DHT22;7188;56.070;12.698;2022-08-03T10:15:02;27.20;99.90
14210;DHT22;7188;56.070;12.698;2022-08-03T10:17:28;27.30;99.90
14210;DHT22;7188;56.070;12.698;2022-08-03T10:19:54;27.20;99.90
14210;DHT22;7188;56.070;12.698;2022-08-03T10:22:25;27.10;99.90
14210;DHT22;7188;56.070;12.698;2022-08-03T10:24:55;27.30;99.90
14210;DHT22;7188;56.070;12.698;2022-08-03T10:27:23;27.60;99.90
14210;DHT22;7188;56.070;12.698;2022-08-03T10:29:52;27.70;99.90
14210;DHT22;7188;56.070;12.698;2022-08-03T10:32:39;27.80;99.90
14210;DHT22;7188;56.070;12.698;2022-08-03T10:35:14;27.80;99.90
14210;DHT22;7188;56.070;12.698;2022-08-03T10:40:43;27.90;99.90
14210;DHT22;7188;56.070;12.698;2022-08-03T10:43:15;28.00;99.90
14210;DHT22;7188;56.070;12.698;2022-08-03T10:45:45;28.00;99.90
14210;DHT22;7188;56.070;12.698;2022-08-03T10:48:11;27.70;99.90
14210;DHT22;7188;56.070;12.698;2022-08-03T10:50:38;27.40;99.90
14210;DHT22;7188;56.070;12.698;2022-08-03T10:53:06;27.20;99.90
14210;DHT22;7188;56.070;12.698;2022-08-03T10:55:43;27.30;99.90
14210;DHT22;7188;56.070;12.698;2022-08-03T11:01:10;27.90;99.90
14210;DHT22;7188;56.070;12.698;2022-08-03T11:06:19;28.20;99.90
14210;DHT22;7188;56.070;12.698;2022-08-03T11:08:46;28.00;99.90
14210;DHT22;7188;56.070;12.698;2022-08-03T11:14:10;28.10;99.90
14210;DHT22;7188;56.070;12.698;2022-08-03T11:16:42;28.20;99.90
14210;DHT22;7188;56.070;12.698;2022-08-03T11:19:11;28.10;99.90
14210;DHT22;7188;56.070;12.698;2022-08-03T11:27:18;27.40;99.90
14210;DHT22;7188;56.070;12.698;2022-08-03T11:40:36;27.60;99.90
14210;DHT22;7188;56.070;12.698;2022-08-03T11:43:05;27.60;99.90
14210;DHT22;7188;56.070;12.698;2022-08-03T11:45:30;27.60;99.90
14210;DHT22;7188;56.070;12.698;2022-08-03T11:47:56;27.40;99.90
14210;DHT22;7188;56.070;12.698;2022-08-03T11:50:24;27.20;99.90
14210;DHT22;7188;56.070;12.698;2022-08-03T11:52:50;27.00;99.90
14210;DHT22;7188;56.070;12.698;2022-08-03T11:55:18;26.90;99.90
14210;DHT22;7188;56.070;12.698;2022-08-03T11:57:46;26.80;99.90
14210;DHT22;7188;56.070;12.698;2022-08-03T12:00:24;26.70;99.90
14210;DHT22;7188;56.070;12.698;2022-08-03T12:03:03;26.80;99.90
14210;DHT22;7188;56.070;12.698;2022-08-03T12:05:52;27.20;99.90
14210;DHT22;7188;56.070;12.698;2022-08-03T12:08:31;27.40;99.90
14210;DHT22;7188;56.070;12.698;2022-08-03T12:10:58;27.60;99.90
14210;DHT22;7188;56.070;12.698;2022-08-03T12:13:24;27.80;99.90
14210;DHT22;7188;56.070;12.698;2022-08-03T12:15:57;27.90;99.90
14210;DHT22;7188;56.070;12.698;2022-08-03T12:18:25;28.10;99.90
14210;DHT22;7188;56.070;12.698;2022-08-03T12:20:52;28.20;99.90
14210;DHT22;7188;56.070;12.698;2022-08-03T12:23:27;28.20;99.90
14210;DHT22;7188;56.070;12.698;2022-08-03T12:26:01;28.40;99.90
14210;DHT22;7188;56.070;12.698;2022-08-03T12:28:27;28.40;99.90
14210;DHT22;7188;56.070;12.698;2022-08-03T12:30:53;28.40;99.90
14210;DHT22;7188;56.070;12.698;2022-08-03T12:33:25;28.10;99.90
14210;DHT22;7188;56.070;12.698;2022-08-03T12:36:07;28.00;99.90
14210;DHT22;7188;56.070;12.698;2022-08-03T12:38:35;27.80;99.90
14210;DHT22;7188;56.070;12.698;2022-08-03T12:41:08;27.70;99.90
14210;DHT22;7188;56.070;12.698;2022-08-03T12:43:49;27.70;99.90
14210;DHT22;7188;56.070;12.698;2022-08-03T12:46:17;27.70;99.90
14210;DHT22;7188;56.070;12.698;2022-08-03T12:49:06;27.70;99.90
14210;DHT22;7188;56.070;12.698;2022-08-03T12:54:06;27.60;99.90
14210;DHT22;7188;56.070;12.698;2022-08-03T12:56:32;27.60;99.90
14210;DHT22;7188;56.070;12.698;2022-08-03T12:58:58;27.60;99.90
14210;DHT22;7188;56.070;12.698;2022-08-03T13:01:24;27.60;99.90
14210;DHT22;7188;56.070;12.698;2022-08-03T13:03:52;27.60;99.90
14210;DHT22;7188;56.070;12.698;2022-08-03T13:06:21;27.60;99.90
14210;DHT22;7188;56.070;12.698;2022-08-03T13:08:47;27.50;99.90
14210;DHT22;7188;56.070;12.698;2022-08-03T13:11:21;27.50;99.90
14210;DHT22;7188;56.070;12.698;2022-08-03T13:13:49;27.70;99.90
14210;DHT22;7188;56.070;12.698;2022-08-03T13:16:14;27.60;99.90
14210;DHT22;7188;56.070;12.698;2022-08-03T13:18:40;27.60;99.90
14210;DHT22;7188;56.070;12.698;2022-08-03T13:21:06;27.50;99.90
14210;DHT22;7188;56.070;12.698;2022-08-03T13:23:31;27.40;99.90
14210;DHT22;7188;56.070;12.698;2022-08-03T13:25:57;27.30;99.90
14210;DHT22;7188;56.070;12.698;2022-08-03T13:28:23;27.20;99.90
14210;DHT22;7188;56.070;12.698;2022-08-03T13:30:48;27.00;99.90
14210;DHT22;7188;56.070;12.698;2022-08-03T13:33:14;26.80;99.90
14210;DHT22;7188;56.070;12.698;2022-08-03T13:35:39;26.80;99.90
14210;DHT22;7188;56.070;12.698;2022-08-03T13:38:05;26.80;99.90
14210;DHT22;7188;56.070;12.698;2022-08-03T13:40:31;26.70;99.90
14210;DHT22;7188;56.070;12.698;2022-08-03T13:42:57;26.80;99.90
14210;DHT22;7188;56.070;12.698;2022-08-03T13:45:23;26.80;99.90
14210;DHT22;7188;56.070;12.698;2022-08-03T13:47:49;26.70;99.90
14210;DHT22;7188;56.070;12.698;2022-08-03T13:50:15;26.70;99.90
14210;DHT22;7188;56.070;12.698;2022-08-03T13:52:41;26.80;99.90
14210;DHT22;7188;56.070;12.698;2022-08-03T13:55:07;26.80;99.90
14210;DHT22;7188;56.070;12.698;2022-08-03T13:57:33;26.90;99.90
14210;DHT22;7188;56.070;12.698;2022-08-03T14:00:00;27.00;99.90
14210;DHT22;7188;56.070;12.698;2022-08-03T14:02:26;27.10;99.90
14210;DHT22;7188;56.070;12.698;2022-08-03T14:04:52;27.10;99.90
14210;DHT22;7188;56.070;12.698;2022-08-03T14:07:19;27.30;99.90
14210;DHT22;7188;56.070;12.698;2022-08-03T14:09:45;27.40;99.90
14210;DHT22;7188;56.070;12.698;2022-08-03T14:12:10;27.50;99.90
14210;DHT22;7188;56.070;12.698;2022-08-03T14:14:36;27.50;99.90
14210;DHT22;7188;56.070;12.698;2022-08-03T14:17:02;27.50;99.90
14210;DHT22;7188;56.070;12.698;2022-08-03T14:19:27;27.40;99.90
14210;DHT22;7188;56.070;12.698;2022-08-03T14:21:53;27.30;99.90
14210;DHT22;7188;56.070;12.698;2022-08-03T14:24:19;27.20;99.90
14210;DHT22;7188;56.070;12.698;2022-08-03T14:26:44;27.10;99.90
14210;DHT22;7188;56.070;12.698;2022-08-03T14:29:10;27.30;99.90
14210;DHT22;7188;56.070;12.698;2022-08-03T14:31:36;27.40;99.90
14210;DHT22;7188;56.070;12.698;2022-08-03T14:34:02;27.50;99.90
14210;DHT22;7188;56.070;12.698;2022-08-03T14:36:28;27.50;99.90
14210;DHT22;7188;56.070;12.698;2022-08-03T14:38:53;27.30;99.90
14210;DHT22;7188;56.070;12.698;2022-08-03T14:41:19;27.10;99.90
14210;DHT22;7188;56.070;12.698;2022-08-03T14:43:45;27.00;99.90
14210;DHT22;7188;56.070;12.698;2022-08-03T14:46:10;27.00;99.90
14210;DHT22;7188;56.070;12.698;2022-08-03T14:48:36;26.90;99.90
14210;DHT22;7188;56.070;12.698;2022-08-03T14:51:03;26.80;99.90
14210;DHT22;7188;56.070;12.698;2022-08-03T14:53:29;26.70;99.90
14210;DHT22;7188;56.070;12.698;2022-08-03T14:55:55;26.60;99.90
14210;DHT22;7188;56.070;12.698;2022-08-03T14:58:22;26.60;99.90
14210;DHT22;7188;56.070;12.698;2022-08-03T15:00:51;26.60;99.90
14210;DHT22;7188;56.070;12.698;2022-08-03T15:03:19;26.50;99.90
14210;DHT22;7188;56.070;12.698;2022-08-03T15:05:49;26.50;99.90
14210;DHT22;7188;56.070;12.698;2022-08-03T15:08:15;26.40;99.90
14210;DHT22;7188;56.070;12.698;2022-08-03T15:10:40;26.40;99.90
14210;DHT22;7188;56.070;12.698;2022-08-03T15:13:06;26.30;99.90
14210;DHT22;7188;56.070;12.698;2022-08-03T15:15:32;26.30;99.90
14210;DHT22;7188;56.070;12.698;2022-08-03T15:17:57;26.30;99.90
14210;DHT22;7188;56.070;12.698;2022-08-03T15:20:48;26.30;99.90
14210;DHT22;7188;56.070;12.698;2022-08-03T15:23:16;26.20;99.90
14210;DHT22;7188;56.070;12.698;2022-08-03T15:25:43;26.10;99.90
14210;DHT22;7188;56.070;12.698;2022-08-03T15:28:09;26.10;99.90
14210;DHT22;7188;56.070;12.698;2022-08-03T15:30:35;26.10;99.90
14210;DHT22;7188;56.070;12.698;2022-08-03T15:33:02;26.20;99.90
14210;DHT22;7188;56.070;12.698;2022-08-03T15:35:27;26.20;99.90
14210;DHT22;7188;56.070;12.698;2022-08-03T15:37:53;26.20;99.90
14210;DHT22;7188;56.070;12.698;2022-08-03T15:40:19;26.30;99.90
14210;DHT22;7188;56.070;12.698;2022-08-03T15:42:45;26.30;99.90
14210;DHT22;7188;56.070;12.698;2022-08-03T15:45:10;26.40;99.90
14210;DHT22;7188;56.070;12.698;2022-08-03T15:47:36;26.40;99.90
14210;DHT22;7188;56.070;12.698;2022-08-03T15:50:02;26.40;99.90
14210;DHT22;7188;56.070;12.698;2022-08-03T15:52:28;26.50;99.90
14210;DHT22;7188;56.070;12.698;2022-08-03T15:54:54;26.60;99.90
14210;DHT22;7188;56.070;12.698;2022-08-03T15:57:21;26.70;99.90
14210;DHT22;7188;56.070;12.698;2022-08-03T15:59:47;26.70;99.90
14210;DHT22;7188;56.070;12.698;2022-08-03T16:02:13;26.80;99.90
14210;DHT22;7188;56.070;12.698;2022-08-03T16:04:39;26.80;1.00
14210;DHT22;7188;56.070;12.698;2022-08-03T16:07:04;26.80;99.90
14210;DHT22;7188;56.070;12.698;2022-08-03T16:09:30;26.90;99.90
14210;DHT22;7188;56.070;12.698;2022-08-03T16:11:56;27.00;99.90
14210;DHT22;7188;56.070;12.698;2022-08-03T16:14:21;27.00;99.90
14210;DHT22;7188;56.070;12.698;2022-08-03T16:16:47;26.90;1.00
14210;DHT22;7188;56.070;12.698;2022-08-03T16:19:13;26.80;1.00
14210;DHT22;7188;56.070;12.698;2022-08-03T16:21:38;26.70;99.90